sensor_id;sensor_type;location;lat;lon;timestamp;pressure;altitude;pressure_sealevel;temperature;humidity
66880;BME280;53789;51.392;10.234;2023-02-15T00:00:13;99639.13;;;-0.22;79.16
66880;BME280;53789;51.392;10.234;2023-02-15T00:00:33;99638.31;;;-0.23;79.88
66880;BME280;53789;51.392;10.234;2023-02-15T00:00:54;99632.03;;;-0.23;80.19
66880;BME280;53789;51.392;10.234;2023-02-15T00:01:14;99635.81;;;-0.24;79.86
66880;BME280;53789;51.392;10.234;2023-02-15T00:01:36;99633.94;;;-0.24;80.27
66880;BME280;53789;51.392;10.234;2023-02-15T00:01:57;99631.44;;;-0.25;78.97
66880;BME280;53789;51.392;10.234;2023-02-15T00:02:17;99631.63;;;-0.27;78.98
66880;BME280;53789;51.392;10.234;2023-02-15T00:02:38;99640.78;;;-0.28;79.81
66880;BME280;53789;51.392;10.234;2023-02-15T00:02:59;99635.34;;;-0.28;79.53
66880;BME280;53789;51.392;10.234;2023-02-15T00:03:19;99632.88;;;-0.30;80.25
66880;BME280;53789;51.392;10.234;2023-02-15T00:03:39;99631.19;;;-0.31;80.28
66880;BME280;53789;51.392;10.234;2023-02-15T00:04:00;99639.09;;;-0.29;79.83
66880;BME280;53789;51.392;10.234;2023-02-15T00:04:23;99631.84;;;-0.28;81.21
66880;BME280;53789;51.392;10.234;2023-02-15T00:04:44;99634.75;;;-0.30;81.02
66880;BME280;53789;51.392;10.234;2023-02-15T00:05:04;99641.78;;;-0.29;79.81
66880;BME280;53789;51.392;10.234;2023-02-15T00:05:24;99632.88;;;-0.30;80.06
66880;BME280;53789;51.392;10.234;2023-02-15T00:05:45;99640.78;;;-0.28;79.47
66880;BME280;53789;51.392;10.234;2023-02-15T00:06:05;99632.03;;;-0.30;79.01
66880;BME280;53789;51.392;10.234;2023-02-15T00:06:25;99638.47;;;-0.31;79.27
66880;BME280;53789;51.392;10.234;2023-02-15T00:06:46;99635.78;;;-0.31;79.24
66880;BME280;53789;51.392;10.234;2023-02-15T00:07:07;99627.66;;;-0.31;79.08
66880;BME280;53789;51.392;10.234;2023-02-15T00:07:27;99637.66;;;-0.32;79.73
66880;BME280;53789;51.392;10.234;2023-02-15T00:07:47;99634.09;;;-0.32;80.11
66880;BME280;53789;51.392;10.234;2023-02-15T00:08:08;99635.78;;;-0.31;79.90
66880;BME280;53789;51.392;10.234;2023-02-15T00:08:28;99624.13;;;-0.32;80.35
66880;BME280;53789;51.392;10.234;2023-02-15T00:08:48;99624.13;;;-0.32;80.95
66880;BME280;53789;51.392;10.234;2023-02-15T00:09:10;99635.97;;;-0.33;79.81
66880;BME280;53789;51.392;10.234;2023-02-15T00:09:31;99636.78;;;-0.32;79.71
66880;BME280;53789;51.392;10.234;2023-02-15T00:09:51;99637.84;;;-0.33;79.97
66880;BME280;53789;51.392;10.234;2023-02-15T00:10:11;99632.44;;;-0.33;78.83
66880;BME280;53789;51.392;10.234;2023-02-15T00:10:31;99633.25;;;-0.33;80.26
66880;BME280;53789;51.392;10.234;2023-02-15T00:10:52;99632.44;;;-0.33;79.42
66880;BME280;53789;51.392;10.234;2023-02-15T00:11:15;99636.16;;;-0.34;80.01
66880;BME280;53789;51.392;10.234;2023-02-15T00:11:36;99629.09;;;-0.35;79.17
66880;BME280;53789;51.392;10.234;2023-02-15T00:11:56;99623.69;;;-0.35;79.21
66880;BME280;53789;51.392;10.234;2023-02-15T00:12:17;99637.00;;;-0.34;79.61
66880;BME280;53789;51.392;10.234;2023-02-15T00:12:37;99639.69;;;-0.34;79.36
66880;BME280;53789;51.392;10.234;2023-02-15T00:12:59;99635.16;;;-0.33;80.05
66880;BME280;53789;51.392;10.234;2023-02-15T00:13:20;99630.97;;;-0.36;80.25
66880;BME280;53789;51.392;10.234;2023-02-15T00:13:40;99631.78;;;-0.35;80.30
66880;BME280;53789;51.392;10.234;2023-02-15T00:14:00;99636.38;;;-0.36;79.32
66880;BME280;53789;51.392;10.234;2023-02-15T00:14:22;99628.25;;;-0.36;79.41
66880;BME280;53789;51.392;10.234;2023-02-15T00:14:43;99628.25;;;-0.36;79.34
66880;BME280;53789;51.392;10.234;2023-02-15T00:15:03;99628.47;;;-0.37;80.20
66880;BME280;53789;51.392;10.234;2023-02-15T00:15:24;99635.75;;;-0.38;79.52
66880;BME280;53789;51.392;10.234;2023-02-15T00:15:44;99633.06;;;-0.38;79.59
66880;BME280;53789;51.392;10.234;2023-02-15T00:16:07;99630.34;;;-0.38;79.33
66880;BME280;53789;51.392;10.234;2023-02-15T00:16:27;99630.53;;;-0.39;79.45
66880;BME280;53789;51.392;10.234;2023-02-15T00:16:49;99632.41;;;-0.40;80.09
66880;BME280;53789;51.392;10.234;2023-02-15T00:17:10;99628.88;;;-0.40;79.39
66880;BME280;53789;51.392;10.234;2023-02-15T00:17:30;99628.00;;;-0.41;79.78
66880;BME280;53789;51.392;10.234;2023-02-15T00:17:51;99628.88;;;-0.40;80.06
66880;BME280;53789;51.392;10.234;2023-02-15T00:18:11;99636.13;;;-0.41;78.81
66880;BME280;53789;51.392;10.234;2023-02-15T00:18:32;99636.13;;;-0.41;79.91
66880;BME280;53789;51.392;10.234;2023-02-15T00:18:52;99639.88;;;-0.42;79.23
66880;BME280;53789;51.392;10.234;2023-02-15T00:19:15;99637.19;;;-0.42;78.81
66880;BME280;53789;51.392;10.234;2023-02-15T00:19:36;99635.50;;;-0.43;79.59
66880;BME280;53789;51.392;10.234;2023-02-15T00:19:56;99642.78;;;-0.43;79.06
66880;BME280;53789;51.392;10.234;2023-02-15T00:20:16;99640.09;;;-0.43;80.13
66880;BME280;53789;51.392;10.234;2023-02-15T00:20:37;99640.28;;;-0.45;79.87
66880;BME280;53789;51.392;10.234;2023-02-15T00:20:58;99647.75;;;-0.47;79.25
66880;BME280;53789;51.392;10.234;2023-02-15T00:21:18;99645.03;;;-0.47;79.88
66880;BME280;53789;51.392;10.234;2023-02-15T00:21:40;99637.13;;;-0.49;79.10
66880;BME280;53789;51.392;10.234;2023-02-15T00:22:00;99639.22;;;-0.51;79.84
66880;BME280;53789;51.392;10.234;2023-02-15T00:22:20;99639.00;;;-0.49;79.32
66880;BME280;53789;51.392;10.234;2023-02-15T00:22:41;99640.03;;;-0.50;79.50
66880;BME280;53789;51.392;10.234;2023-02-15T00:23:01;99646.31;;;-0.50;79.04
66880;BME280;53789;51.392;10.234;2023-02-15T00:23:21;99646.50;;;-0.51;80.31
66880;BME280;53789;51.392;10.234;2023-02-15T00:23:42;99641.91;;;-0.51;80.49
66880;BME280;53789;51.392;10.234;2023-02-15T00:24:04;99644.63;;;-0.51;79.04
66880;BME280;53789;51.392;10.234;2023-02-15T00:24:26;99635.69;;;-0.51;79.95
66880;BME280;53789;51.392;10.234;2023-02-15T00:24:46;99643.81;;;-0.51;80.25
66880;BME280;53789;51.392;10.234;2023-02-15T00:25:06;99637.53;;;-0.52;79.19
66880;BME280;53789;51.392;10.234;2023-02-15T00:25:27;99643.97;;;-0.53;79.12
66880;BME280;53789;51.392;10.234;2023-02-15T00:25:47;99637.75;;;-0.53;79.88
66880;BME280;53789;51.392;10.234;2023-02-15T00:26:10;99643.16;;;-0.53;80.03
66880;BME280;53789;51.392;10.234;2023-02-15T00:26:31;99650.22;;;-0.52;80.32
66880;BME280;53789;51.392;10.234;2023-02-15T00:26:51;99646.66;;;-0.53;79.78
66880;BME280;53789;51.392;10.234;2023-02-15T00:27:12;99637.53;;;-0.52;79.53
66880;BME280;53789;51.392;10.234;2023-02-15T00:27:33;99643.97;;;-0.53;80.81
66880;BME280;53789;51.392;10.234;2023-02-15T00:27:53;99637.75;;;-0.53;81.02
66880;BME280;53789;51.392;10.234;2023-02-15T00:28:13;99643.16;;;-0.53;79.51
66880;BME280;53789;51.392;10.234;2023-02-15T00:28:34;99645.84;;;-0.53;79.37
66880;BME280;53789;51.392;10.234;2023-02-15T00:28:55;99641.47;;;-0.54;80.28
66880;BME280;53789;51.392;10.234;2023-02-15T00:29:17;99638.75;;;-0.54;80.02
66880;BME280;53789;51.392;10.234;2023-02-15T00:29:38;99639.81;;;-0.55;80.27
66880;BME280;53789;51.392;10.234;2023-02-15T00:29:58;99635.22;;;-0.55;80.25
66880;BME280;53789;51.392;10.234;2023-02-15T00:30:19;99643.34;;;-0.55;80.16
66880;BME280;53789;51.392;10.234;2023-02-15T00:30:39;99636.06;;;-0.54;79.50
66880;BME280;53789;51.392;10.234;2023-02-15T00:31:04;99633.34;;;-0.54;80.26
66880;BME280;53789;51.392;10.234;2023-02-15T00:31:25;99637.75;;;-0.53;80.38
66880;BME280;53789;51.392;10.234;2023-02-15T00:31:46;99636.91;;;-0.54;79.94
66880;BME280;53789;51.392;10.234;2023-02-15T00:32:06;99636.91;;;-0.54;80.15
66880;BME280;53789;51.392;10.234;2023-02-15T00:32:27;99635.03;;;-0.53;79.18
66880;BME280;53789;51.392;10.234;2023-02-15T00:32:47;99634.22;;;-0.54;80.19
66880;BME280;53789;51.392;10.234;2023-02-15T00:33:08;99636.06;;;-0.54;79.88
66880;BME280;53789;51.392;10.234;2023-02-15T00:33:28;99640.44;;;-0.53;79.36
66880;BME280;53789;51.392;10.234;2023-02-15T00:33:48;99638.56;;;-0.53;78.71
66880;BME280;53789;51.392;10.234;2023-02-15T00:34:21;99639.63;;;-0.54;79.37
66880;BME280;53789;51.392;10.234;2023-02-15T00:34:41;99635.03;;;-0.53;80.31
66880;BME280;53789;51.392;10.234;2023-02-15T00:35:02;99635.84;;;-0.53;80.00
66880;BME280;53789;51.392;10.234;2023-02-15T00:35:22;99637.53;;;-0.52;79.25
66880;BME280;53789;51.392;10.234;2023-02-15T00:35:42;99632.13;;;-0.52;79.22
66880;BME280;53789;51.392;10.234;2023-02-15T00:36:05;99634.84;;;-0.52;79.74
66880;BME280;53789;51.392;10.234;2023-02-15T00:36:26;99638.41;;;-0.51;80.08
66880;BME280;53789;51.392;10.234;2023-02-15T00:36:47;99630.09;;;-0.50;79.54
66880;BME280;53789;51.392;10.234;2023-02-15T00:37:07;99631.09;;;-0.51;79.80
66880;BME280;53789;51.392;10.234;2023-02-15T00:37:27;99631.94;;;-0.50;78.69
66880;BME280;53789;51.392;10.234;2023-02-15T00:37:48;99640.91;;;-0.50;78.51
66880;BME280;53789;51.392;10.234;2023-02-15T00:38:08;99635.69;;;-0.51;78.40
66880;BME280;53789;51.392;10.234;2023-02-15T00:38:29;99634.63;;;-0.50;78.82
66880;BME280;53789;51.392;10.234;2023-02-15T00:38:50;99628.41;;;-0.51;79.16
66880;BME280;53789;51.392;10.234;2023-02-15T00:39:11;99636.50;;;-0.51;79.86
66880;BME280;53789;51.392;10.234;2023-02-15T00:39:32;99636.50;;;-0.51;80.05
66880;BME280;53789;51.392;10.234;2023-02-15T00:39:52;99634.63;;;-0.50;79.41
66880;BME280;53789;51.392;10.234;2023-02-15T00:40:12;99632.78;;;-0.50;80.06
66880;BME280;53789;51.392;10.234;2023-02-15T00:40:33;99635.50;;;-0.50;79.31
66880;BME280;53789;51.392;10.234;2023-02-15T00:40:54;99634.44;;;-0.49;79.65
66880;BME280;53789;51.392;10.234;2023-02-15T00:41:14;99631.72;;;-0.49;79.16
66880;BME280;53789;51.392;10.234;2023-02-15T00:41:35;99636.09;;;-0.48;79.44
66880;BME280;53789;51.392;10.234;2023-02-15T00:41:56;99634.44;;;-0.49;78.66
66880;BME280;53789;51.392;10.234;2023-02-15T00:42:16;99632.59;;;-0.48;78.85
66880;BME280;53789;51.392;10.234;2023-02-15T00:42:36;99629.03;;;-0.49;78.68
66880;BME280;53789;51.392;10.234;2023-02-15T00:42:56;99630.09;;;-0.50;79.18
66880;BME280;53789;51.392;10.234;2023-02-15T00:43:17;99634.63;;;-0.50;78.12
66880;BME280;53789;51.392;10.234;2023-02-15T00:43:37;99632.78;;;-0.50;77.70
66880;BME280;53789;51.392;10.234;2023-02-15T00:43:57;99632.13;;;-0.52;78.98
66880;BME280;53789;51.392;10.234;2023-02-15T00:44:18;99625.91;;;-0.52;78.13
66880;BME280;53789;51.392;10.234;2023-02-15T00:44:38;99629.63;;;-0.53;77.99
66880;BME280;53789;51.392;10.234;2023-02-15T00:44:58;99630.44;;;-0.53;78.16
66880;BME280;53789;51.392;10.234;2023-02-15T00:45:19;99628.81;;;-0.54;79.09
66880;BME280;53789;51.392;10.234;2023-02-15T00:45:39;99633.16;;;-0.53;77.81
66880;BME280;53789;51.392;10.234;2023-02-15T00:46:00;99627.94;;;-0.54;77.85
66880;BME280;53789;51.392;10.234;2023-02-15T00:46:20;99629.81;;;-0.55;79.26
66880;BME280;53789;51.392;10.234;2023-02-15T00:46:41;99621.72;;;-0.55;78.02
66880;BME280;53789;51.392;10.234;2023-02-15T00:47:01;99632.34;;;-0.53;78.52
66880;BME280;53789;51.392;10.234;2023-02-15T00:47:22;99632.75;;;-0.56;77.53
66880;BME280;53789;51.392;10.234;2023-02-15T00:47:42;99627.53;;;-0.58;78.56
66880;BME280;53789;51.392;10.234;2023-02-15T00:48:02;99631.06;;;-0.57;78.69
66880;BME280;53789;51.392;10.234;2023-02-15T00:48:23;99624.00;;;-0.58;79.30
66880;BME280;53789;51.392;10.234;2023-02-15T00:48:43;99622.94;;;-0.57;78.15
66880;BME280;53789;51.392;10.234;2023-02-15T00:49:04;99621.31;;;-0.58;79.18
66880;BME280;53789;51.392;10.234;2023-02-15T00:49:25;99622.13;;;-0.58;78.08
66880;BME280;53789;51.392;10.234;2023-02-15T00:49:45;99625.03;;;-0.59;78.66
66880;BME280;53789;51.392;10.234;2023-02-15T00:50:06;99624.81;;;-0.58;78.51
66880;BME280;53789;51.392;10.234;2023-02-15T00:50:26;99624.00;;;-0.58;78.76
66880;BME280;53789;51.392;10.234;2023-02-15T00:50:50;99624.00;;;-0.58;78.40
66880;BME280;53789;51.392;10.234;2023-02-15T00:51:11;99618.81;;;-0.60;79.40
66880;BME280;53789;51.392;10.234;2023-02-15T00:51:32;99624.22;;;-0.60;79.09
66880;BME280;53789;51.392;10.234;2023-02-15T00:51:52;99624.22;;;-0.60;78.89
66880;BME280;53789;51.392;10.234;2023-02-15T00:52:12;99627.72;;;-0.59;79.61
66880;BME280;53789;51.392;10.234;2023-02-15T00:52:33;99625.03;;;-0.59;79.27
66880;BME280;53789;51.392;10.234;2023-02-15T00:52:53;99625.84;;;-0.59;79.68
66880;BME280;53789;51.392;10.234;2023-02-15T00:53:13;99621.31;;;-0.58;79.07
66880;BME280;53789;51.392;10.234;2023-02-15T00:53:34;99622.13;;;-0.58;79.28
66880;BME280;53789;51.392;10.234;2023-02-15T00:53:54;99620.25;;;-0.57;79.34
66880;BME280;53789;51.392;10.234;2023-02-15T00:54:14;99615.50;;;-0.55;79.56
66880;BME280;53789;51.392;10.234;2023-02-15T00:54:35;99617.34;;;-0.56;79.51
66880;BME280;53789;51.392;10.234;2023-02-15T00:54:55;99620.03;;;-0.56;79.49
66880;BME280;53789;51.392;10.234;2023-02-15T00:55:15;99611.94;;;-0.56;78.74
66880;BME280;53789;51.392;10.234;2023-02-15T00:55:36;99619.22;;;-0.56;78.82
66880;BME280;53789;51.392;10.234;2023-02-15T00:55:57;99616.31;;;-0.55;78.06
66880;BME280;53789;51.392;10.234;2023-02-15T00:56:18;99614.84;;;-0.57;78.74
66880;BME280;53789;51.392;10.234;2023-02-15T00:56:38;99617.53;;;-0.57;77.92
66880;BME280;53789;51.392;10.234;2023-02-15T00:56:58;99614.03;;;-0.58;79.00
66880;BME280;53789;51.392;10.234;2023-02-15T00:57:18;99612.13;;;-0.57;79.12
66880;BME280;53789;51.392;10.234;2023-02-15T00:57:39;99611.31;;;-0.58;79.51
66880;BME280;53789;51.392;10.234;2023-02-15T00:57:59;99608.63;;;-0.58;78.71
66880;BME280;53789;51.392;10.234;2023-02-15T00:58:20;99608.63;;;-0.58;78.34
66880;BME280;53789;51.392;10.234;2023-02-15T00:58:40;99612.34;;;-0.59;78.18
66880;BME280;53789;51.392;10.234;2023-02-15T00:59:01;99618.59;;;-0.58;79.42
66880;BME280;53789;51.392;10.234;2023-02-15T00:59:21;99609.63;;;-0.59;78.81
66880;BME280;53789;51.392;10.234;2023-02-15T00:59:41;99606.13;;;-0.59;78.46
66880;BME280;53789;51.392;10.234;2023-02-15T01:00:02;99614.22;;;-0.59;78.44
66880;BME280;53789;51.392;10.234;2023-02-15T01:00:22;99614.22;;;-0.59;78.06
66880;BME280;53789;51.392;10.234;2023-02-15T01:00:45;99614.41;;;-0.61;77.71
66880;BME280;53789;51.392;10.234;2023-02-15T01:01:09;99613.59;;;-0.61;77.79
66880;BME280;53789;51.392;10.234;2023-02-15T01:01:30;99609.22;;;-0.62;78.71
66880;BME280;53789;51.392;10.234;2023-02-15T01:01:50;99610.25;;;-0.63;79.08
66880;BME280;53789;51.392;10.234;2023-02-15T01:02:10;99611.09;;;-0.63;78.02
66880;BME280;53789;51.392;10.234;2023-02-15T01:02:31;99605.03;;;-0.65;78.78
66880;BME280;53789;51.392;10.234;2023-02-15T01:02:51;99609.41;;;-0.64;79.20
66880;BME280;53789;51.392;10.234;2023-02-15T01:03:13;99609.41;;;-0.64;79.23
66880;BME280;53789;51.392;10.234;2023-02-15T01:03:35;99607.75;;;-0.65;78.50
66880;BME280;53789;51.392;10.234;2023-02-15T01:03:55;99609.63;;;-0.66;78.49
66880;BME280;53789;51.392;10.234;2023-02-15T01:04:16;99600.66;;;-0.66;77.83
66880;BME280;53789;51.392;10.234;2023-02-15T01:04:36;99610.44;;;-0.65;78.43
66880;BME280;53789;51.392;10.234;2023-02-15T01:04:56;99605.03;;;-0.65;78.68
66880;BME280;53789;51.392;10.234;2023-02-15T01:05:17;99605.03;;;-0.65;78.77
66880;BME280;53789;51.392;10.234;2023-02-15T01:05:37;99604.22;;;-0.66;78.12
66880;BME280;53789;51.392;10.234;2023-02-15T01:05:58;99606.06;;;-0.66;77.45
66880;BME280;53789;51.392;10.234;2023-02-15T01:06:19;99599.00;;;-0.67;77.52
66880;BME280;53789;51.392;10.234;2023-02-15T01:06:39;99607.94;;;-0.67;78.20
66880;BME280;53789;51.392;10.234;2023-02-15T01:06:59;99607.94;;;-0.67;78.01
66880;BME280;53789;51.392;10.234;2023-02-15T01:07:20;99603.56;;;-0.68;78.09
66880;BME280;53789;51.392;10.234;2023-02-15T01:07:40;99604.41;;;-0.67;78.30
66880;BME280;53789;51.392;10.234;2023-02-15T01:08:01;99600.84;;;-0.68;78.72
66880;BME280;53789;51.392;10.234;2023-02-15T01:08:21;99604.41;;;-0.67;78.94
66880;BME280;53789;51.392;10.234;2023-02-15T01:08:42;99602.75;;;-0.68;79.33
66880;BME280;53789;51.392;10.234;2023-02-15T01:09:02;99602.75;;;-0.68;79.24
66880;BME280;53789;51.392;10.234;2023-02-15T01:09:23;99601.06;;;-0.69;77.93
66880;BME280;53789;51.392;10.234;2023-02-15T01:09:43;99598.34;;;-0.69;77.85
66880;BME280;53789;51.392;10.234;2023-02-15T01:10:05;99596.50;;;-0.69;77.83
66880;BME280;53789;51.392;10.234;2023-02-15T01:10:27;99601.06;;;-0.69;78.62
66880;BME280;53789;51.392;10.234;2023-02-15T01:10:47;99600.44;;;-0.71;77.38
66880;BME280;53789;51.392;10.234;2023-02-15T01:11:12;99597.94;;;-0.73;77.51
66880;BME280;53789;51.392;10.234;2023-02-15T01:11:33;99600.63;;;-0.73;78.06
66880;BME280;53789;51.392;10.234;2023-02-15T01:11:53;99597.13;;;-0.73;78.29
66880;BME280;53789;51.392;10.234;2023-02-15T01:12:13;99600.00;;;-0.75;78.72
66880;BME280;53789;51.392;10.234;2023-02-15T01:12:34;99601.88;;;-0.75;78.88
66880;BME280;53789;51.392;10.234;2023-02-15T01:12:55;99599.16;;;-0.75;79.16
66880;BME280;53789;51.392;10.234;2023-02-15T01:13:16;99597.47;;;-0.76;77.56
66880;BME280;53789;51.392;10.234;2023-02-15T01:13:37;99593.75;;;-0.75;77.70
66880;BME280;53789;51.392;10.234;2023-02-15T01:13:58;99599.81;;;-0.73;78.61
66880;BME280;53789;51.392;10.234;2023-02-15T01:14:18;99600.00;;;-0.75;78.73
66880;BME280;53789;51.392;10.234;2023-02-15T01:14:39;99593.75;;;-0.75;78.34
66880;BME280;53789;51.392;10.234;2023-02-15T01:14:59;99597.31;;;-0.75;78.64
66880;BME280;53789;51.392;10.234;2023-02-15T01:15:20;99592.72;;;-0.74;78.96
66880;BME280;53789;51.392;10.234;2023-02-15T01:15:41;99596.25;;;-0.74;78.92
66880;BME280;53789;51.392;10.234;2023-02-15T01:16:03;99592.72;;;-0.74;77.76
66880;BME280;53789;51.392;10.234;2023-02-15T01:16:26;99597.31;;;-0.75;79.34
66880;BME280;53789;51.392;10.234;2023-02-15T01:16:46;99590.22;;;-0.76;79.05
66880;BME280;53789;51.392;10.234;2023-02-15T01:17:07;99587.72;;;-0.77;77.68
66880;BME280;53789;51.392;10.234;2023-02-15T01:17:27;99590.22;;;-0.76;78.72
66880;BME280;53789;51.392;10.234;2023-02-15T01:17:48;99588.34;;;-0.75;78.25
66880;BME280;53789;51.392;10.234;2023-02-15T01:18:09;99586.69;;;-0.76;78.50
66880;BME280;53789;51.392;10.234;2023-02-15T01:18:30;99589.38;;;-0.76;78.02
66880;BME280;53789;51.392;10.234;2023-02-15T01:18:50;99585.84;;;-0.77;77.80
66880;BME280;53789;51.392;10.234;2023-02-15T01:19:11;99587.72;;;-0.77;77.86
66880;BME280;53789;51.392;10.234;2023-02-15T01:19:32;99582.31;;;-0.77;78.06
66880;BME280;53789;51.392;10.234;2023-02-15T01:19:52;99585.03;;;-0.77;78.27
66880;BME280;53789;51.392;10.234;2023-02-15T01:20:13;99582.31;;;-0.77;78.08
66880;BME280;53789;51.392;10.234;2023-02-15T01:20:36;99575.03;;;-0.77;78.95
66880;BME280;53789;51.392;10.234;2023-02-15T01:20:57;99584.81;;;-0.76;78.88
66880;BME280;53789;51.392;10.234;2023-02-15T01:21:22;99587.53;;;-0.76;78.28
66880;BME280;53789;51.392;10.234;2023-02-15T01:21:42;99577.53;;;-0.75;77.71
66880;BME280;53789;51.392;10.234;2023-02-15T01:22:03;99585.66;;;-0.75;79.57
66880;BME280;53789;51.392;10.234;2023-02-15T01:22:23;99574.84;;;-0.75;78.69
66880;BME280;53789;51.392;10.234;2023-02-15T01:22:43;99580.25;;;-0.75;78.54
66880;BME280;53789;51.392;10.234;2023-02-15T01:23:05;99574.84;;;-0.75;77.73
66880;BME280;53789;51.392;10.234;2023-02-15T01:23:25;99575.03;;;-0.77;78.28
66880;BME280;53789;51.392;10.234;2023-02-15T01:23:46;99571.50;;;-0.77;78.14
66880;BME280;53789;51.392;10.234;2023-02-15T01:24:12;99568.16;;;-0.79;78.13
66880;BME280;53789;51.392;10.234;2023-02-15T01:24:33;99570.88;;;-0.79;77.79
66880;BME280;53789;51.392;10.234;2023-02-15T01:24:53;99571.06;;;-0.81;78.30
66880;BME280;53789;51.392;10.234;2023-02-15T01:25:13;99568.56;;;-0.83;78.25
66880;BME280;53789;51.392;10.234;2023-02-15T01:25:35;99565.03;;;-0.83;78.34
66880;BME280;53789;51.392;10.234;2023-02-15T01:25:55;99569.63;;;-0.84;79.16
66880;BME280;53789;51.392;10.234;2023-02-15T01:26:16;99568.16;;;-0.86;78.55
66880;BME280;53789;51.392;10.234;2023-02-15T01:26:37;99568.16;;;-0.86;77.81
66880;BME280;53789;51.392;10.234;2023-02-15T01:26:57;99562.94;;;-0.88;77.92
66880;BME280;53789;51.392;10.234;2023-02-15T01:27:17;99563.97;;;-0.89;78.79
66880;BME280;53789;51.392;10.234;2023-02-15T01:27:38;99568.34;;;-0.88;77.91
66880;BME280;53789;51.392;10.234;2023-02-15T01:27:58;99561.47;;;-0.90;78.20
66880;BME280;53789;51.392;10.234;2023-02-15T01:28:18;99563.97;;;-0.89;78.90
66880;BME280;53789;51.392;10.234;2023-02-15T01:28:39;99564.78;;;-0.88;78.68
66880;BME280;53789;51.392;10.234;2023-02-15T01:28:59;99565.44;;;-0.86;79.16
66880;BME280;53789;51.392;10.234;2023-02-15T01:29:19;99561.72;;;-0.85;79.38
66880;BME280;53789;51.392;10.234;2023-02-15T01:29:40;99566.25;;;-0.86;78.54
66880;BME280;53789;51.392;10.234;2023-02-15T01:30:00;99565.44;;;-0.86;78.40
66880;BME280;53789;51.392;10.234;2023-02-15T01:30:20;99561.91;;;-0.87;77.96
66880;BME280;53789;51.392;10.234;2023-02-15T01:30:41;99561.91;;;-0.87;78.84
66880;BME280;53789;51.392;10.234;2023-02-15T01:31:06;99563.56;;;-0.86;79.19
66880;BME280;53789;51.392;10.234;2023-02-15T01:31:26;99558.16;;;-0.86;78.92
66880;BME280;53789;51.392;10.234;2023-02-15T01:31:47;99553.81;;;-0.87;78.41
66880;BME280;53789;51.392;10.234;2023-02-15T01:32:07;99555.66;;;-0.87;77.93
66880;BME280;53789;51.392;10.234;2023-02-15T01:32:27;99557.34;;;-0.86;79.32
66880;BME280;53789;51.392;10.234;2023-02-15T01:32:48;99560.03;;;-0.86;78.40
66880;BME280;53789;51.392;10.234;2023-02-15T01:33:09;99557.34;;;-0.86;78.88
66880;BME280;53789;51.392;10.234;2023-02-15T01:33:30;99563.75;;;-0.87;78.63
66880;BME280;53789;51.392;10.234;2023-02-15T01:33:50;99558.38;;;-0.87;77.86
66880;BME280;53789;51.392;10.234;2023-02-15T01:34:10;99561.06;;;-0.87;77.78
66880;BME280;53789;51.392;10.234;2023-02-15T01:34:31;99557.53;;;-0.88;78.32
66880;BME280;53789;51.392;10.234;2023-02-15T01:34:51;99560.44;;;-0.89;77.27
66880;BME280;53789;51.392;10.234;2023-02-15T01:35:11;99556.06;;;-0.90;78.21
66880;BME280;53789;51.392;10.234;2023-02-15T01:35:32;99555.25;;;-0.91;78.91
66880;BME280;53789;51.392;10.234;2023-02-15T01:35:57;99560.44;;;-0.89;78.85
66880;BME280;53789;51.392;10.234;2023-02-15T01:36:17;99555.03;;;-0.89;78.75
66880;BME280;53789;51.392;10.234;2023-02-15T01:36:38;99556.06;;;-0.90;78.28
66880;BME280;53789;51.392;10.234;2023-02-15T01:36:58;99559.59;;;-0.90;78.69
66880;BME280;53789;51.392;10.234;2023-02-15T01:37:18;99556.06;;;-0.90;78.97
66880;BME280;53789;51.392;10.234;2023-02-15T01:37:39;99555.25;;;-0.91;78.44
66880;BME280;53789;51.392;10.234;2023-02-15T01:37:59;99550.84;;;-0.92;77.22
66880;BME280;53789;51.392;10.234;2023-02-15T01:38:19;99558.13;;;-0.92;78.43
66880;BME280;53789;51.392;10.234;2023-02-15T01:38:40;99553.97;;;-0.95;77.43
66880;BME280;53789;51.392;10.234;2023-02-15T01:39:00;99552.28;;;-0.96;77.97
66880;BME280;53789;51.392;10.234;2023-02-15T01:39:20;99555.00;;;-0.96;77.82
66880;BME280;53789;51.392;10.234;2023-02-15T01:39:41;99553.34;;;-0.97;77.79
66880;BME280;53789;51.392;10.234;2023-02-15T01:40:04;99560.59;;;-0.97;77.78
66880;BME280;53789;51.392;10.234;2023-02-15T01:40:25;99557.06;;;-0.98;78.52
66880;BME280;53789;51.392;10.234;2023-02-15T01:40:45;99557.25;;;-0.99;77.99
66880;BME280;53789;51.392;10.234;2023-02-15T01:41:06;99559.16;;;-1.00;78.06
66880;BME280;53789;51.392;10.234;2023-02-15T01:41:26;99552.06;;;-1.01;77.93
66880;BME280;53789;51.392;10.234;2023-02-15T01:41:46;99553.09;;;-1.02;77.36
66880;BME280;53789;51.392;10.234;2023-02-15T01:42:13;99551.41;;;-1.03;78.50
66880;BME280;53789;51.392;10.234;2023-02-15T01:42:33;99552.47;;;-1.04;78.46
66880;BME280;53789;51.392;10.234;2023-02-15T01:42:55;99549.97;;;-1.06;77.67
66880;BME280;53789;51.392;10.234;2023-02-15T01:43:15;99551.19;;;-1.08;76.97
66880;BME280;53789;51.392;10.234;2023-02-15T01:43:44;99550.38;;;-1.09;77.57
66880;BME280;53789;51.392;10.234;2023-02-15T01:45:25;99551.13;;;-1.15;77.83
66880;BME280;53789;51.392;10.234;2023-02-15T01:45:49;99552.19;;;-1.16;78.27
66880;BME280;53789;51.392;10.234;2023-02-15T01:46:14;99546.97;;;-1.17;77.60
66880;BME280;53789;51.392;10.234;2023-02-15T01:46:42;99548.00;;;-1.19;78.29
66880;BME280;53789;51.392;10.234;2023-02-15T01:47:10;99548.81;;;-1.18;78.83
66880;BME280;53789;51.392;10.234;2023-02-15T01:48:04;99550.09;;;-1.21;77.57
66880;BME280;53789;51.392;10.234;2023-02-15T01:48:27;99547.78;;;-1.24;78.04
66880;BME280;53789;51.392;10.234;2023-02-15T01:48:54;99550.28;;;-1.22;78.29
66880;BME280;53789;51.392;10.234;2023-02-15T01:49:21;99545.06;;;-1.24;77.47
66880;BME280;53789;51.392;10.234;2023-02-15T01:49:47;99542.53;;;-1.25;78.16
66880;BME280;53789;51.392;10.234;2023-02-15T01:50:25;99540.91;;;-1.26;78.01
66880;BME280;53789;51.392;10.234;2023-02-15T01:51:00;99537.34;;;-1.27;79.04
66880;BME280;53789;51.392;10.234;2023-02-15T01:51:25;99535.69;;;-1.28;78.10
66880;BME280;53789;51.392;10.234;2023-02-15T01:51:48;99537.34;;;-1.27;78.36
66880;BME280;53789;51.392;10.234;2023-02-15T01:52:14;99542.75;;;-1.27;79.90